createdAt,value
2022-12-27T00:00:54.794Z,78.08
2022-12-27T00:01:57.026Z,77.82
2022-12-27T00:03:00.492Z,77.86
2022-12-27T00:04:02.814Z,78.10
2022-12-27T00:05:08.890Z,78.02
2022-12-27T00:06:13.245Z,77.93
2022-12-27T00:07:16.470Z,78.00
2022-12-27T00:08:20.147Z,78.00
2022-12-27T00:09:23.597Z,77.74
2022-12-27T00:10:25.822Z,77.73
2022-12-27T00:11:30.206Z,77.84
2022-12-27T00:12:32.407Z,77.94
2022-12-27T00:13:35.646Z,77.68
2022-12-27T00:14:37.876Z,77.63
2022-12-27T00:15:41.056Z,77.92
2022-12-27T00:16:43.318Z,77.75
2022-12-27T00:17:46.398Z,77.84
2022-12-27T00:18:49.541Z,77.71
2022-12-27T00:19:52.664Z,77.74
2022-12-27T00:20:57.991Z,77.68
2022-12-27T00:22:01.118Z,77.81
2022-12-27T00:23:03.383Z,77.84
2022-12-27T00:24:08.465Z,77.63
2022-12-27T00:25:10.989Z,77.74
2022-12-27T00:26:19.265Z,77.77
2022-12-27T00:27:21.356Z,77.81
2022-12-27T00:28:24.492Z,77.63
2022-12-27T00:29:26.571Z,77.66
2022-12-27T00:30:29.616Z,77.58
2022-12-27T00:31:32.656Z,77.89
2022-12-27T00:32:36.287Z,77.63
2022-12-27T00:33:39.447Z,77.57
2022-12-27T00:34:42.588Z,77.56
2022-12-27T00:35:44.756Z,77.66
2022-12-27T00:36:47.825Z,77.71
2022-12-27T00:37:49.889Z,77.64
2022-12-27T00:38:53.780Z,77.68
2022-12-27T00:39:58.205Z,77.50
2022-12-27T00:41:00.768Z,77.45
2022-12-27T00:42:03.973Z,77.41
2022-12-27T00:43:06.068Z,77.65
2022-12-27T00:44:09.224Z,77.64
2022-12-27T00:45:11.577Z,77.51
2022-12-27T00:46:15.075Z,77.65
2022-12-27T00:47:17.197Z,77.48
2022-12-27T00:48:20.272Z,77.40
2022-12-27T00:49:23.350Z,77.29
2022-12-27T00:50:25.832Z,77.28
2022-12-27T00:51:29.291Z,77.28
2022-12-27T00:52:31.382Z,77.24
2022-12-27T00:53:35.948Z,77.38
2022-12-27T00:54:38.191Z,77.23
2022-12-27T00:55:45.720Z,77.05
2022-12-27T00:56:47.961Z,76.82
2022-12-27T00:57:51.106Z,77.20
2022-12-27T00:58:54.361Z,77.03
2022-12-27T00:59:57.479Z,76.87
2022-12-27T01:01:06.309Z,76.95
2022-12-27T01:02:09.461Z,76.96
2022-12-27T01:03:11.637Z,77.04
2022-12-27T01:04:16.048Z,76.60
2022-12-27T01:05:18.383Z,76.95
2022-12-27T01:06:23.873Z,76.95
2022-12-27T01:07:26.124Z,76.85
2022-12-27T01:08:30.531Z,76.73
2022-12-27T01:09:33.583Z,76.74
2022-12-27T01:10:35.781Z,76.82
2022-12-27T01:11:41.245Z,76.84
2022-12-27T01:12:43.322Z,76.71
2022-12-27T01:13:47.292Z,76.84
2022-12-27T01:14:49.388Z,76.53
2022-12-27T01:15:52.435Z,76.84
2022-12-27T01:16:54.532Z,76.82
2022-12-27T01:17:57.700Z,76.79
2022-12-27T01:19:00.309Z,76.60
2022-12-27T01:20:04.043Z,76.50
2022-12-27T01:21:07.188Z,76.68
2022-12-27T01:22:10.362Z,76.69
2022-12-27T01:23:12.591Z,76.49
2022-12-27T01:24:15.731Z,76.66
2022-12-27T01:25:17.830Z,76.43
2022-12-27T01:26:22.706Z,76.53
2022-12-27T01:27:26.194Z,76.41
2022-12-27T01:28:29.341Z,76.69
2022-12-27T01:29:31.414Z,76.55
2022-12-27T01:30:34.483Z,76.76
2022-12-27T01:31:36.598Z,76.54
2022-12-27T01:32:39.749Z,76.56
2022-12-27T01:33:42.672Z,76.73
2022-12-27T01:34:46.054Z,76.70
2022-12-27T01:35:48.545Z,76.56
2022-12-27T01:36:51.665Z,76.69
2022-12-27T01:37:53.760Z,76.49
2022-12-27T01:38:57.011Z,76.51
2022-12-27T01:39:59.102Z,76.55
2022-12-27T01:41:23.128Z,76.50
2022-12-27T01:42:46.023Z,76.48
2022-12-27T01:43:48.171Z,76.50
2022-12-27T01:44:55.302Z,76.70
2022-12-27T01:45:58.435Z,76.63
2022-12-27T01:47:02.612Z,76.41
2022-12-27T01:48:13.121Z,76.68
2022-12-27T01:49:15.128Z,76.34
2022-12-27T01:50:26.632Z,76.46
2022-12-27T01:51:28.831Z,76.24
2022-12-27T01:52:36.364Z,76.28
2022-12-27T01:53:43.060Z,76.52
2022-12-27T01:54:45.337Z,76.23
2022-12-27T01:55:52.605Z,76.23
2022-12-27T01:56:55.952Z,76.19
2022-12-27T01:58:08.997Z,76.33
2022-12-27T01:59:14.175Z,76.22
2022-12-27T02:00:17.801Z,76.32
2022-12-27T02:01:22.175Z,76.49
2022-12-27T02:02:25.984Z,76.53
2022-12-27T02:03:31.131Z,76.31
2022-12-27T02:04:34.749Z,76.53
2022-12-27T02:05:41.726Z,76.34
2022-12-27T02:06:44.986Z,76.63
2022-12-27T02:07:58.929Z,76.62
2022-12-27T02:09:11.464Z,76.55
2022-12-27T02:10:13.840Z,76.55
2022-12-27T02:11:39.015Z,76.46
2022-12-27T02:12:41.395Z,76.76
2022-12-27T02:13:47.362Z,76.66
2022-12-27T02:14:50.137Z,76.79
2022-12-27T02:15:53.225Z,76.87
2022-12-27T02:16:56.016Z,76.92
2022-12-27T02:17:59.389Z,76.71
2022-12-27T02:19:01.556Z,76.84
2022-12-27T02:20:10.609Z,76.75
2022-12-27T02:21:38.946Z,76.64
2022-12-27T02:23:40.027Z,76.67
2022-12-27T02:25:12.436Z,76.62
2022-12-27T02:26:42.981Z,76.71
2022-12-27T02:28:08.274Z,76.69
2022-12-27T02:29:19.813Z,76.77
2022-12-27T02:30:23.191Z,76.93
2022-12-27T02:31:31.400Z,76.92
2022-12-27T02:32:39.408Z,77.05
2022-12-27T02:33:47.007Z,77.09
2022-12-27T02:34:58.468Z,76.79
2022-12-27T02:36:04.839Z,77.02
2022-12-27T02:37:12.059Z,76.90
2022-12-27T02:38:19.361Z,77.00
2022-12-27T02:39:25.612Z,76.89
2022-12-27T02:40:49.681Z,77.17
2022-12-27T02:42:12.326Z,77.13
2022-12-27T02:43:34.014Z,77.24
2022-12-27T02:44:55.877Z,77.23
2022-12-27T02:46:23.977Z,76.88
2022-12-27T02:47:45.584Z,77.27
2022-12-27T02:49:13.660Z,77.36
2022-12-27T02:50:35.258Z,77.10
2022-12-27T02:52:08.561Z,77.09
2022-12-27T02:53:19.504Z,77.25
2022-12-27T02:54:43.222Z,77.20
2022-12-27T02:56:15.471Z,77.20
2022-12-27T02:57:31.106Z,77.21
2022-12-27T02:58:42.153Z,77.15
2022-12-27T03:00:21.068Z,77.27
2022-12-27T03:01:54.513Z,77.05
2022-12-27T03:03:28.917Z,77.11
2022-12-27T03:04:50.048Z,77.28
2022-12-27T03:06:35.449Z,77.21
2022-12-27T03:07:44.460Z,77.42
2022-12-27T03:08:54.214Z,77.11
2022-12-27T03:10:25.904Z,77.38
2022-12-27T03:11:54.398Z,77.30
2022-12-27T03:13:24.134Z,77.58
2022-12-27T03:14:52.733Z,77.56
2022-12-27T03:16:15.556Z,77.61
2022-12-27T03:17:25.561Z,77.58
2022-12-27T03:18:48.297Z,77.78
2022-12-27T03:20:12.972Z,77.60
2022-12-27T03:21:39.777Z,78.14
2022-12-27T03:23:02.959Z,77.86
2022-12-27T03:24:31.121Z,77.76
2022-12-27T03:25:36.950Z,77.81
2022-12-27T03:26:43.651Z,77.92
2022-12-27T03:28:10.088Z,77.84
2022-12-27T03:29:33.551Z,77.98
2022-12-27T03:30:55.954Z,78.14
2022-12-27T03:32:22.277Z,78.00
2022-12-27T03:33:27.503Z,78.04
2022-12-27T03:34:38.172Z,78.09
2022-12-27T03:35:43.839Z,78.20
2022-12-27T03:37:04.305Z,78.17
2022-12-27T03:38:09.485Z,78.01
2022-12-27T03:39:20.711Z,78.02
2022-12-27T03:40:34.640Z,78.20
2022-12-27T03:41:58.654Z,78.24
2022-12-27T03:43:12.351Z,78.16
2022-12-27T03:44:27.828Z,78.13
2022-12-27T03:45:54.083Z,78.11
2022-12-27T03:46:59.974Z,77.95
2022-12-27T03:48:06.411Z,77.92
2022-12-27T03:49:22.006Z,77.96
2022-12-27T03:50:29.720Z,77.83
2022-12-27T03:51:38.756Z,77.74
2022-12-27T03:52:45.372Z,77.69
2022-12-27T03:53:52.151Z,77.71
2022-12-27T03:54:56.163Z,77.74
2022-12-27T03:55:59.529Z,77.52
2022-12-27T03:57:04.772Z,77.36
2022-12-27T03:58:08.043Z,77.58
2022-12-27T03:59:12.373Z,77.47
2022-12-27T04:00:16.408Z,77.30
2022-12-27T04:01:18.703Z,77.38
2022-12-27T04:02:23.655Z,77.59
2022-12-27T04:03:25.866Z,77.69
2022-12-27T04:04:29.062Z,77.91
2022-12-27T04:05:31.146Z,78.05
2022-12-27T04:06:34.168Z,77.92
2022-12-27T04:07:36.181Z,77.89
2022-12-27T04:08:57.776Z,77.78
2022-12-27T04:10:18.688Z,77.82
2022-12-27T04:11:38.921Z,78.19
2022-12-27T04:12:59.721Z,78.13
2022-12-27T04:14:20.075Z,78.09
2022-12-27T04:15:40.837Z,78.18
2022-12-27T04:17:01.690Z,78.07
2022-12-27T04:18:23.777Z,78.10
2022-12-27T04:19:44.464Z,78.29
2022-12-27T04:21:04.647Z,78.14
2022-12-27T04:22:25.342Z,78.16
2022-12-27T04:23:46.404Z,77.91
2022-12-27T04:25:06.681Z,77.94
2022-12-27T04:26:27.429Z,78.04
2022-12-27T04:27:48.086Z,78.08
2022-12-27T04:29:08.775Z,78.04
2022-12-27T04:30:29.758Z,78.28
2022-12-27T04:31:49.861Z,77.95
2022-12-27T04:33:10.350Z,77.90
2022-12-27T04:34:32.435Z,78.24
2022-12-27T04:35:35.459Z,78.04
2022-12-27T04:36:37.549Z,78.41
2022-12-27T04:37:40.665Z,78.46
2022-12-27T04:38:43.761Z,78.65
2022-12-27T04:40:08.881Z,78.57
2022-12-27T04:41:29.587Z,78.81
2022-12-27T04:42:49.802Z,78.88
2022-12-27T04:44:10.545Z,78.87
2022-12-27T04:45:31.253Z,78.79
2022-12-27T04:46:51.623Z,78.66
2022-12-27T04:48:12.184Z,78.92
2022-12-27T04:49:36.589Z,78.76
2022-12-27T04:50:57.190Z,78.63
2022-12-27T04:52:16.974Z,78.52
2022-12-27T04:53:39.918Z,78.77
2022-12-27T04:54:57.805Z,78.74
2022-12-27T04:56:01.055Z,78.51
2022-12-27T04:57:03.189Z,78.76
2022-12-27T04:58:06.189Z,78.79
2022-12-27T04:59:26.576Z,78.93
2022-12-27T05:00:49.730Z,78.71
2022-12-27T05:02:04.186Z,78.61
2022-12-27T05:03:10.063Z,78.80
2022-12-27T05:04:12.414Z,78.82
2022-12-27T05:05:17.079Z,78.80
2022-12-27T05:06:19.848Z,79.06
2022-12-27T05:07:40.507Z,79.10
2022-12-27T05:09:01.763Z,79.34
2022-12-27T05:10:24.350Z,79.38
2022-12-27T05:11:45.393Z,79.38
2022-12-27T05:13:05.737Z,79.34
2022-12-27T05:14:12.306Z,79.56
2022-12-27T05:15:14.460Z,79.90
2022-12-27T05:16:17.591Z,80.04
2022-12-27T05:17:19.642Z,80.19
2022-12-27T05:18:23.214Z,80.48
2022-12-27T05:19:25.233Z,80.19
2022-12-27T05:20:29.649Z,80.00
2022-12-27T05:21:36.879Z,80.15
2022-12-27T05:22:57.505Z,80.43
2022-12-27T05:24:18.209Z,80.53
2022-12-27T05:25:35.163Z,80.46
2022-12-27T05:26:39.233Z,80.78
2022-12-27T05:27:41.246Z,80.59
2022-12-27T05:28:44.325Z,80.71
2022-12-27T05:29:46.637Z,81.02
2022-12-27T05:30:49.789Z,81.05
2022-12-27T05:31:51.864Z,81.20
2022-12-27T05:32:55.582Z,81.31
2022-12-27T05:33:58.211Z,81.28
2022-12-27T05:35:01.280Z,81.62
2022-12-27T05:36:05.429Z,81.66
2022-12-27T05:37:08.693Z,81.40
2022-12-27T05:38:10.871Z,81.68
2022-12-27T05:39:13.933Z,81.73
2022-12-27T05:40:16.214Z,81.65
2022-12-27T05:41:19.790Z,81.95
2022-12-27T05:42:21.806Z,82.04
2022-12-27T05:43:24.852Z,82.04
2022-12-27T05:44:27.076Z,82.12
2022-12-27T05:45:30.648Z,81.96
2022-12-27T05:46:32.778Z,82.13
2022-12-27T05:47:35.868Z,82.22
2022-12-27T05:48:38.313Z,82.09
2022-12-27T05:49:41.355Z,82.23
2022-12-27T05:50:43.455Z,82.48
2022-12-27T05:51:48.008Z,82.25
2022-12-27T05:52:50.318Z,82.63
2022-12-27T05:53:53.346Z,82.70
2022-12-27T05:54:55.722Z,82.57
2022-12-27T05:55:59.607Z,82.75
2022-12-27T05:57:01.770Z,82.90
2022-12-27T05:58:05.030Z,82.61
2022-12-27T05:59:08.506Z,82.60
2022-12-27T06:00:12.257Z,82.92
2022-12-27T06:01:18.204Z,82.96
2022-12-27T06:02:20.475Z,82.99
2022-12-27T06:03:24.733Z,83.08
2022-12-27T06:04:26.839Z,82.68
2022-12-27T06:05:29.870Z,82.66
2022-12-27T06:06:32.035Z,82.94
2022-12-27T06:07:37.942Z,82.65
2022-12-27T06:08:40.139Z,82.92
2022-12-27T06:09:43.229Z,82.71
2022-12-27T06:10:45.253Z,82.76
2022-12-27T06:11:48.307Z,82.88
2022-12-27T06:12:50.370Z,82.70
2022-12-27T06:13:54.955Z,82.97
2022-12-27T06:14:57.063Z,82.71
2022-12-27T06:16:01.988Z,82.81
2022-12-27T06:17:04.142Z,82.61
2022-12-27T06:18:07.253Z,82.69
2022-12-27T06:19:09.401Z,82.82
2022-12-27T06:20:12.556Z,82.68
2022-12-27T06:21:15.921Z,82.63
2022-12-27T06:22:19.049Z,82.71
2022-12-27T06:23:22.497Z,82.59
2022-12-27T06:24:25.621Z,82.35
2022-12-27T06:25:27.753Z,82.46
2022-12-27T06:26:31.044Z,82.30
2022-12-27T06:27:33.955Z,82.49
2022-12-27T06:28:37.073Z,82.23
2022-12-27T06:29:39.140Z,82.14
2022-12-27T06:30:42.181Z,82.10
2022-12-27T06:31:44.285Z,82.22
2022-12-27T06:32:47.357Z,82.25
2022-12-27T06:33:50.499Z,81.91
2022-12-27T06:34:53.550Z,81.79
2022-12-27T06:35:55.736Z,81.74
2022-12-27T06:36:58.781Z,81.76
2022-12-27T06:38:00.797Z,81.67
2022-12-27T06:39:05.210Z,81.83
2022-12-27T06:40:08.271Z,81.56
2022-12-27T06:41:13.591Z,81.68
2022-12-27T06:42:15.973Z,81.25
2022-12-27T06:43:19.149Z,81.53
2022-12-27T06:44:21.758Z,81.46
2022-12-27T06:45:25.223Z,81.23
2022-12-27T06:46:27.611Z,81.30
2022-12-27T06:47:30.688Z,81.38
2022-12-27T06:48:33.014Z,81.19
2022-12-27T06:49:36.061Z,81.34
2022-12-27T06:50:38.146Z,81.48
2022-12-27T06:51:41.191Z,81.36
2022-12-27T06:52:43.255Z,81.56
2022-12-27T06:53:46.444Z,81.42
2022-12-27T06:54:50.063Z,81.50
2022-12-27T06:55:53.184Z,81.58
2022-12-27T06:56:56.873Z,81.60
2022-12-27T06:58:00.061Z,81.60
2022-12-27T06:59:02.176Z,81.63
2022-12-27T07:00:06.314Z,81.66
2022-12-27T07:01:09.094Z,81.45
2022-12-27T07:02:13.811Z,81.38
2022-12-27T07:03:15.968Z,81.65
2022-12-27T07:04:19.125Z,81.53
2022-12-27T07:05:21.225Z,81.78
2022-12-27T07:06:26.213Z,81.46
2022-12-27T07:07:28.298Z,81.60
2022-12-27T07:08:31.517Z,81.67
2022-12-27T07:09:33.677Z,81.68
2022-12-27T07:10:38.564Z,81.54
2022-12-27T07:11:40.678Z,81.86
2022-12-27T07:12:43.697Z,81.62
2022-12-27T07:13:47.790Z,81.79
2022-12-27T07:14:50.786Z,82.09
2022-12-27T07:15:53.145Z,82.02
2022-12-27T07:16:56.276Z,81.87
2022-12-27T07:17:59.474Z,81.96
2022-12-27T07:19:02.502Z,82.08
2022-12-27T07:20:05.971Z,82.25
2022-12-27T07:21:11.357Z,82.47
2022-12-27T07:22:13.430Z,82.16
2022-12-27T07:23:19.437Z,82.71
2022-12-27T07:24:21.655Z,82.63
2022-12-27T07:25:24.669Z,82.55
2022-12-27T07:26:30.288Z,82.47
2022-12-27T07:27:34.744Z,82.48
2022-12-27T07:28:37.376Z,82.51
2022-12-27T07:29:45.553Z,82.32
2022-12-27T07:30:47.943Z,82.68
2022-12-27T07:31:51.008Z,82.53
2022-12-27T07:32:53.146Z,82.85
2022-12-27T07:33:56.794Z,82.93
2022-12-27T07:34:58.783Z,82.76
2022-12-27T07:36:03.004Z,83.13
2022-12-27T07:37:06.011Z,83.42
2022-12-27T07:38:08.013Z,83.40
2022-12-27T07:39:11.423Z,83.42
2022-12-27T07:40:13.467Z,83.33
2022-12-27T07:41:16.934Z,83.51
2022-12-27T07:42:20.379Z,83.50
2022-12-27T07:43:24.741Z,83.45
2022-12-27T07:44:26.806Z,83.57
2022-12-27T07:45:29.829Z,83.67
2022-12-27T07:46:32.881Z,83.60
2022-12-27T07:47:35.901Z,83.62
2022-12-27T07:48:38.360Z,83.77
2022-12-27T07:49:41.404Z,83.43
2022-12-27T07:50:43.450Z,83.43
2022-12-27T07:51:46.539Z,83.65
2022-12-27T07:52:48.523Z,83.55
2022-12-27T07:53:52.836Z,83.39
2022-12-27T07:54:54.897Z,83.26
2022-12-27T07:55:59.384Z,83.35
2022-12-27T07:57:01.413Z,83.50
2022-12-27T07:58:05.815Z,83.53
2022-12-27T07:59:13.642Z,83.30
2022-12-27T08:00:16.389Z,83.58
2022-12-27T08:01:21.542Z,83.71
2022-12-27T08:02:23.740Z,83.36
2022-12-27T08:03:26.933Z,83.41
2022-12-27T08:04:29.092Z,83.62
2022-12-27T08:05:32.144Z,83.29
2022-12-27T08:06:35.162Z,83.48
2022-12-27T08:07:39.327Z,83.49
2022-12-27T08:08:44.524Z,83.11
2022-12-27T08:09:49.692Z,82.83
2022-12-27T08:10:51.757Z,82.75
2022-12-27T08:11:54.813Z,82.63
2022-12-27T08:12:56.911Z,82.53
2022-12-27T08:14:02.379Z,82.53
2022-12-27T08:15:05.007Z,82.58
2022-12-27T08:16:08.837Z,82.53
2022-12-27T08:17:16.375Z,82.33
2022-12-27T08:18:19.489Z,82.59
2022-12-27T08:19:21.509Z,82.21
2022-12-27T08:20:24.561Z,82.29
2022-12-27T08:21:26.756Z,82.32
2022-12-27T08:22:29.869Z,82.27
2022-12-27T08:23:32.199Z,82.07
2022-12-27T08:24:35.171Z,82.09
2022-12-27T08:25:37.256Z,82.10
2022-12-27T08:26:40.253Z,82.07
2022-12-27T08:27:42.275Z,82.09
2022-12-27T08:28:45.354Z,82.21
2022-12-27T08:29:49.364Z,81.99
2022-12-27T08:30:52.934Z,81.92
2022-12-27T08:31:54.959Z,81.86
2022-12-27T08:32:58.092Z,81.87
2022-12-27T08:34:00.149Z,81.55
2022-12-27T08:35:33.122Z,81.54
2022-12-27T08:37:48.268Z,81.44
2022-12-27T08:38:53.067Z,81.55
2022-12-27T08:40:02.383Z,81.46
2022-12-27T08:41:05.141Z,81.03
2022-12-27T08:42:08.207Z,81.38
2022-12-27T08:43:10.740Z,81.08
2022-12-27T08:44:14.069Z,81.46
2022-12-27T08:45:17.485Z,81.42
2022-12-27T08:46:20.659Z,81.46
2022-12-27T08:47:23.199Z,81.42
2022-12-27T08:48:26.311Z,81.25
2022-12-27T08:49:28.353Z,81.25
2022-12-27T08:50:31.498Z,81.60
2022-12-27T08:51:40.871Z,81.35
2022-12-27T08:52:43.500Z,81.42
2022-12-27T08:53:46.687Z,81.38
2022-12-27T08:54:48.834Z,81.25
2022-12-27T08:55:51.883Z,81.35
2022-12-27T08:56:53.902Z,80.99
2022-12-27T08:58:00.317Z,80.93
2022-12-27T08:59:02.468Z,80.90
2022-12-27T09:00:07.219Z,80.86
2022-12-27T09:01:11.702Z,80.60
2022-12-27T09:02:15.254Z,81.03
2022-12-27T09:03:19.565Z,80.87
2022-12-27T09:04:23.476Z,81.01
2022-12-27T09:05:27.419Z,81.17
2022-12-27T09:06:31.091Z,80.97
2022-12-27T09:07:33.321Z,81.10
2022-12-27T09:08:36.648Z,80.90
2022-12-27T09:09:40.108Z,80.89
2022-12-27T09:10:42.742Z,81.02
2022-12-27T09:11:47.156Z,81.30
2022-12-27T09:12:49.246Z,80.92
2022-12-27T09:13:53.403Z,80.85
2022-12-27T09:14:59.020Z,80.80
2022-12-27T09:16:05.800Z,80.16
2022-12-27T09:17:10.881Z,80.62
2022-12-27T09:18:13.304Z,80.61
2022-12-27T09:19:18.535Z,80.56
2022-12-27T09:20:21.753Z,80.28
2022-12-27T09:21:27.862Z,80.33
2022-12-27T09:22:29.913Z,80.27
2022-12-27T09:23:32.998Z,80.07
2022-12-27T09:24:36.290Z,79.97
2022-12-27T09:25:38.635Z,79.84
2022-12-27T09:26:41.903Z,80.07
2022-12-27T09:27:44.978Z,79.72
2022-12-27T09:28:47.852Z,79.56
2022-12-27T09:29:50.932Z,79.33
2022-12-27T09:30:53.025Z,79.46
2022-12-27T09:31:56.193Z,79.25
2022-12-27T09:33:00.616Z,79.14
2022-12-27T09:34:03.011Z,79.30
2022-12-27T09:35:07.021Z,79.21
2022-12-27T09:36:11.617Z,79.24
2022-12-27T09:37:15.182Z,79.30
2022-12-27T09:38:18.487Z,79.28
2022-12-27T09:39:21.539Z,79.17
2022-12-27T09:40:23.683Z,79.31
2022-12-27T09:43:20.757Z,79.14
2022-12-27T09:44:34.149Z,79.15
2022-12-27T09:45:41.479Z,78.97
2022-12-27T09:46:53.481Z,79.12
2022-12-27T09:47:58.611Z,78.93
2022-12-27T09:49:04.712Z,78.86
2022-12-27T09:50:13.871Z,78.81
2022-12-27T09:51:20.725Z,78.94
2022-12-27T09:52:28.167Z,78.89
2022-12-27T09:53:40.574Z,79.01
2022-12-27T09:54:59.428Z,78.94
2022-12-27T09:56:05.203Z,78.85
2022-12-27T09:57:20.411Z,78.96
2022-12-27T09:58:38.114Z,79.05
2022-12-27T09:59:47.995Z,78.76
2022-12-27T10:00:51.868Z,78.87
2022-12-27T10:01:54.868Z,78.70
2022-12-27T10:03:00.282Z,78.42
2022-12-27T10:04:06.328Z,78.74
2022-12-27T10:05:21.701Z,78.63
2022-12-27T10:06:40.534Z,78.65
2022-12-27T10:07:54.490Z,78.59
2022-12-27T10:09:04.590Z,78.19
2022-12-27T10:10:17.363Z,78.13
2022-12-27T10:11:36.244Z,78.38
2022-12-27T10:13:06.302Z,78.13
2022-12-27T10:14:31.354Z,78.26
2022-12-27T10:15:41.180Z,78.20
2022-12-27T10:16:54.303Z,77.71
2022-12-27T10:18:12.588Z,77.91
2022-12-27T10:19:31.328Z,78.09
2022-12-27T10:20:47.908Z,77.06
2022-12-27T10:22:03.165Z,77.19
2022-12-27T10:23:11.389Z,77.23
2022-12-27T10:24:19.813Z,76.99
2022-12-27T10:25:25.340Z,76.33
2022-12-27T10:26:27.657Z,76.74
2022-12-27T10:27:32.186Z,76.50
2022-12-27T10:28:40.770Z,76.29
2022-12-27T10:29:43.597Z,76.45
2022-12-27T10:30:46.859Z,76.02
2022-12-27T10:31:49.190Z,76.14
2022-12-27T10:32:53.668Z,76.23
2022-12-27T10:33:56.274Z,76.08
2022-12-27T10:35:04.007Z,75.99
2022-12-27T10:36:14.242Z,75.77
2022-12-27T10:37:16.709Z,75.66
2022-12-27T10:38:20.605Z,75.64
2022-12-27T10:39:28.293Z,75.51
2022-12-27T10:40:38.671Z,75.72
2022-12-27T10:41:55.003Z,75.37
2022-12-27T10:43:04.884Z,75.31
2022-12-27T10:44:10.808Z,75.54
2022-12-27T10:45:32.392Z,75.15
2022-12-27T10:46:34.597Z,75.27
2022-12-27T10:47:38.214Z,75.34
2022-12-27T10:49:19.995Z,75.33
2022-12-27T10:50:13.053Z,75.40
2022-12-27T10:51:16.125Z,75.18
2022-12-27T10:52:23.685Z,75.21
2022-12-27T10:53:30.471Z,74.72
2022-12-27T10:54:33.718Z,74.62
2022-12-27T10:55:37.718Z,74.42
2022-12-27T10:56:42.667Z,74.12
2022-12-27T10:57:44.931Z,73.78
2022-12-27T10:58:56.577Z,74.00
2022-12-27T11:00:20.590Z,73.21
2022-12-27T11:01:25.849Z,73.49
2022-12-27T11:02:28.810Z,73.45
2022-12-27T11:03:32.301Z,73.44
2022-12-27T11:04:35.382Z,73.59
2022-12-27T11:05:39.809Z,73.29
2022-12-27T11:06:44.042Z,73.13
2022-12-27T11:07:46.071Z,73.31
2022-12-27T11:08:49.515Z,73.22
2022-12-27T11:10:07.155Z,73.32
2022-12-27T11:11:14.757Z,73.50
2022-12-27T11:12:23.886Z,73.18
2022-12-27T11:13:25.907Z,73.05
2022-12-27T11:14:28.946Z,72.84
2022-12-27T11:15:34.133Z,72.98
2022-12-27T11:16:37.582Z,73.18
2022-12-27T11:17:42.937Z,73.03
2022-12-27T11:18:49.985Z,73.10
2022-12-27T11:19:53.190Z,73.13
2022-12-27T11:20:59.193Z,72.44
2022-12-27T11:22:06.737Z,72.20
2022-12-27T11:23:15.228Z,72.36
2022-12-27T11:24:21.066Z,72.26
2022-12-27T11:25:25.599Z,72.08
2022-12-27T11:26:30.948Z,72.17
2022-12-27T11:27:34.435Z,71.98
2022-12-27T11:28:39.891Z,72.24
2022-12-27T11:29:45.805Z,72.05
2022-12-27T11:30:56.187Z,72.03
2022-12-27T11:32:07.812Z,72.22
2022-12-27T11:33:25.020Z,71.44
2022-12-27T11:34:32.403Z,71.54
2022-12-27T11:35:46.161Z,71.25
2022-12-27T11:36:54.268Z,70.69
2022-12-27T11:37:56.574Z,70.15
2022-12-27T11:39:01.533Z,69.77
2022-12-27T11:40:23.562Z,69.31
2022-12-27T11:41:39.033Z,69.50
2022-12-27T11:42:50.321Z,69.22
2022-12-27T11:43:56.261Z,68.80
2022-12-27T11:45:10.605Z,69.16
2022-12-27T11:46:22.701Z,68.74
2022-12-27T11:47:33.096Z,68.87
2022-12-27T11:48:40.950Z,68.83
2022-12-27T11:49:53.399Z,68.91
2022-12-27T11:51:31.173Z,68.67
2022-12-27T11:53:01.643Z,68.65
2022-12-27T11:54:31.264Z,69.08
2022-12-27T11:56:00.680Z,69.37
2022-12-27T11:57:20.938Z,68.86
2022-12-27T11:58:50.134Z,68.88
2022-12-27T11:59:59.698Z,69.08
2022-12-27T12:01:22.387Z,68.85
2022-12-27T12:02:34.814Z,68.67
2022-12-27T12:04:14.679Z,68.80
2022-12-27T12:05:44.091Z,68.55
2022-12-27T12:06:59.111Z,68.66
2022-12-27T12:08:24.889Z,68.75
2022-12-27T12:09:51.158Z,68.48
2022-12-27T12:11:00.352Z,68.70
2022-12-27T12:12:28.525Z,68.60
2022-12-27T12:13:58.738Z,68.67
2022-12-27T12:15:29.015Z,69.04
2022-12-27T12:17:09.804Z,68.98
2022-12-27T12:18:25.581Z,69.08
2022-12-27T12:19:55.658Z,68.88
2022-12-27T12:21:23.940Z,68.56
2022-12-27T12:22:46.236Z,68.65
2022-12-27T12:24:10.478Z,68.63
2022-12-27T12:25:53.142Z,68.82
2022-12-27T12:27:18.812Z,68.56
2022-12-27T12:28:58.140Z,68.69
2022-12-27T12:30:29.122Z,68.74
2022-12-27T12:31:49.475Z,68.74
2022-12-27T12:33:07.246Z,68.92
2022-12-27T12:34:28.125Z,68.80
2022-12-27T12:35:47.588Z,69.04
2022-12-27T12:37:09.155Z,69.28
2022-12-27T12:38:21.145Z,69.15
2022-12-27T12:39:41.708Z,69.19
2022-12-27T12:41:22.797Z,69.20
2022-12-27T12:42:36.237Z,69.47
2022-12-27T12:43:57.131Z,69.59
2022-12-27T12:45:08.416Z,69.56
2022-12-27T12:46:26.227Z,69.48
2022-12-27T12:47:52.576Z,69.71
2022-12-27T12:49:25.672Z,69.85
2022-12-27T12:50:55.017Z,70.01
2022-12-27T12:52:23.245Z,69.91
2022-12-27T12:53:43.520Z,69.94
2022-12-27T12:55:38.078Z,70.19
2022-12-27T12:56:59.855Z,70.20
2022-12-27T12:58:18.853Z,69.96
2022-12-27T12:59:50.905Z,69.88
2022-12-27T13:01:19.035Z,69.76
2022-12-27T13:02:47.372Z,69.60
2022-12-27T13:04:23.893Z,69.76
2022-12-27T13:05:35.322Z,69.54
2022-12-27T13:06:58.235Z,69.51
2022-12-27T13:08:13.448Z,69.67
2022-12-27T13:09:25.417Z,69.42
2022-12-27T13:10:51.662Z,69.55
2022-12-27T13:12:03.490Z,69.73
2022-12-27T13:13:15.533Z,69.39
2022-12-27T13:14:33.696Z,69.26
2022-12-27T13:15:55.319Z,69.42
2022-12-27T13:17:06.477Z,69.34
2022-12-27T13:18:29.999Z,69.35
2022-12-27T13:20:03.423Z,69.09
2022-12-27T13:21:24.011Z,69.16
2022-12-27T13:22:39.340Z,69.26
2022-12-27T13:23:51.072Z,69.34
2022-12-27T13:25:10.216Z,69.04
2022-12-27T13:26:23.730Z,69.04
2022-12-27T13:27:35.341Z,69.21
2022-12-27T13:28:53.093Z,69.18
2022-12-27T13:30:07.227Z,69.43
2022-12-27T13:31:25.829Z,69.16
2022-12-27T13:32:41.501Z,69.27
2022-12-27T13:33:54.526Z,69.08
2022-12-27T13:35:07.367Z,69.26
2022-12-27T13:36:25.268Z,69.47
2022-12-27T13:37:41.270Z,69.32
2022-12-27T13:39:27.067Z,69.19
2022-12-27T13:40:46.611Z,69.20
2022-12-27T13:42:01.102Z,68.87
2022-12-27T13:43:19.761Z,69.19
2022-12-27T13:44:37.275Z,69.37
2022-12-27T13:45:49.793Z,69.29
2022-12-27T13:47:29.894Z,69.10
2022-12-27T13:48:49.352Z,69.20
2022-12-27T13:50:16.170Z,69.57
2022-12-27T13:51:43.840Z,69.50
2022-12-27T13:53:00.347Z,69.47
2022-12-27T13:54:28.011Z,69.64
2022-12-27T13:55:38.714Z,69.65
2022-12-27T13:56:54.564Z,69.85
2022-12-27T13:58:23.527Z,69.90
2022-12-27T14:00:08.819Z,69.75
2022-12-27T14:01:48.423Z,70.08
2022-12-27T14:03:34.412Z,70.11
2022-12-27T14:04:59.846Z,70.21
2022-12-27T14:06:27.503Z,70.23
2022-12-27T14:07:56.883Z,70.47
2022-12-27T14:09:18.321Z,70.26
2022-12-27T14:10:36.180Z,70.42
2022-12-27T14:11:51.504Z,70.47
2022-12-27T14:13:04.463Z,70.59
2022-12-27T14:14:09.715Z,70.76
2022-12-27T14:15:17.299Z,70.75
2022-12-27T14:16:36.083Z,70.78
2022-12-27T14:17:45.229Z,70.70
2022-12-27T14:19:06.991Z,71.10
2022-12-27T14:20:28.801Z,71.10
2022-12-27T14:22:00.315Z,70.96
2022-12-27T14:23:21.388Z,71.05
2022-12-27T14:24:59.830Z,71.16
2022-12-27T14:26:50.329Z,71.16
2022-12-27T14:28:21.684Z,71.38
2022-12-27T14:30:06.192Z,71.44
2022-12-27T14:31:41.400Z,71.39
2022-12-27T14:33:20.160Z,71.42
2022-12-27T14:34:57.376Z,71.83
2022-12-27T14:36:53.955Z,71.91
2022-12-27T14:38:20.901Z,71.98
2022-12-27T14:39:57.679Z,71.81
2022-12-27T14:41:30.275Z,72.00
2022-12-27T14:43:21.945Z,72.00
2022-12-27T14:45:06.746Z,71.93
2022-12-27T14:46:38.265Z,72.23
2022-12-27T14:48:06.561Z,72.47
2022-12-27T14:50:06.693Z,72.54
2022-12-27T14:53:33.644Z,72.65
2022-12-27T14:55:21.338Z,72.75
2022-12-27T14:56:34.157Z,73.00
2022-12-27T14:57:42.598Z,73.57
2022-12-27T14:58:57.883Z,73.15
2022-12-27T15:00:06.109Z,73.22
2022-12-27T15:01:21.261Z,73.46
2022-12-27T15:02:42.320Z,73.80
2022-12-27T15:04:00.320Z,73.88
2022-12-27T15:05:24.066Z,73.97
2022-12-27T15:06:57.530Z,73.92
2022-12-27T15:08:29.324Z,74.00
2022-12-27T15:09:43.439Z,74.35
2022-12-27T15:11:06.045Z,74.26
2022-12-27T15:12:22.866Z,74.26
2022-12-27T15:13:40.419Z,74.43
2022-12-27T15:15:08.421Z,74.49
2022-12-27T15:16:22.343Z,74.87